Time;durP1;ratioP1;P1;durP2;ratioP2;P2;SDS_P1;SDS_P2;PMS_P1;PMS_P2;Temp;Humidity;BMP_temperature;BMP_pressure;BME280_temperature;BME280_humidity;BME280_pressure;Samples;Min_cycle;Max_cycle;Signal;HPM_P1;HPM_P2
2021/04/02 00:00:50;;;;;;;3.92;3.00;;;6.70;1.00;;;;;;4994306;28;20374;-65
2021/04/02 00:03:23;;;;;;;3.08;2.45;;;6.90;1.00;;;;;;4994077;28;20173;-65
2021/04/02 00:05:50;;;;;;;3.33;2.53;;;7.10;1.00;;;;;;4994111;28;20559;-65
2021/04/02 00:08:16;;;;;;;3.38;3.08;;;7.20;99.90;;;;;;4994028;28;20193;-65
2021/04/02 00:10:53;;;;;;;3.13;2.83;;;7.10;99.90;;;;;;4994037;28;20183;-65
2021/04/02 00:13:25;;;;;;;3.20;2.90;;;7.20;99.90;;;;;;4993895;28;20781;-65
2021/04/02 00:15:51;;;;;;;5.28;3.08;;;7.10;95.10;;;;;;4994072;28;20197;-65
2021/04/02 00:18:20;;;;;;;3.33;2.70;;;7.00;76.70;;;;;;4993881;28;20551;-65
2021/04/02 00:20:46;;;;;;;3.70;3.00;;;6.90;99.90;;;;;;4993890;28;20260;-65
2021/04/02 00:23:12;;;;;;;3.37;2.63;;;7.10;99.90;;;;;;4993785;28;20191;-65
2021/04/02 00:25:38;;;;;;;3.70;3.40;;;7.10;99.90;;;;;;4993925;28;20183;-65
2021/04/02 00:28:05;;;;;;;3.42;3.00;;;7.10;99.90;;;;;;4993777;28;20473;-65
2021/04/02 00:30:41;;;;;;;4.50;3.40;;;7.00;99.90;;;;;;4992802;28;20643;-65
2021/04/02 00:33:07;;;;;;;4.43;3.97;;;7.00;99.90;;;;;;4993633;28;20247;-65
2021/04/02 00:35:33;;;;;;;3.70;3.30;;;7.00;1.00;;;;;;4993852;28;20600;-65
2021/04/02 00:37:59;;;;;;;2.63;2.30;;;7.00;99.90;;;;;;4993697;28;20635;-65
2021/04/02 00:40:30;;;;;;;3.50;2.73;;;7.00;1.00;;;;;;4996089;28;20281;-65
2021/04/02 00:42:56;;;;;;;4.10;3.70;;;7.00;1.00;;;;;;4997523;28;20460;-65
2021/04/02 00:45:22;;;;;;;3.43;2.90;;;7.00;99.90;;;;;;4997325;28;20206;-65
2021/04/02 00:47:56;;;;;;;4.00;3.03;;;7.00;99.90;;;;;;4997335;28;20473;-65
2021/04/02 00:50:24;;;;;;;4.00;3.22;;;7.00;99.90;;;;;;4997445;28;20425;-65
2021/04/02 00:52:53;;;;;;;3.15;2.85;;;7.00;99.90;;;;;;4997441;28;20262;-64
2021/04/02 00:55:19;;;;;;;3.78;3.22;;;6.90;1.00;;;;;;4997326;28;20178;-65
2021/04/02 00:57:45;;;;;;;4.65;3.55;;;6.80;1.00;;;;;;5012861;28;20243;-65
2021/04/02 01:00:13;;;;;;;6.68;4.35;;;6.80;1.00;;;;;;4996784;28;20195;-65
2021/04/02 01:02:40;;;;;;;3.85;3.45;;;6.70;87.60;;;;;;4996223;28;20198;-65
2021/04/02 01:05:28;;;;;;;5.88;4.80;;;6.60;99.90;;;;;;4997144;28;20214;-65
2021/04/02 01:08:09;;;;;;;8.55;5.90;;;6.40;1.00;;;;;;4996899;28;20296;-65
2021/04/02 01:10:36;;;;;;;8.38;5.28;;;6.70;1.00;;;;;;4997127;28;20189;-63
2021/04/02 01:13:08;;;;;;;6.90;5.40;;;6.60;1.00;;;;;;4997090;28;20622;-63
2021/04/02 01:15:34;;;;;;;7.50;5.00;;;6.50;1.00;;;;;;4995992;28;20189;-63
2021/04/02 01:18:04;;;;;;;7.13;5.80;;;6.40;1.00;;;;;;4996965;28;20708;-63
2021/04/02 01:20:33;;;;;;;10.80;5.70;;;6.40;1.00;;;;;;4996993;28;20179;-63
2021/04/02 01:23:07;;;;;;;7.65;5.18;;;6.30;1.00;;;;;;4996924;28;20624;-63
2021/04/02 01:25:48;;;;;;;8.02;6.10;;;6.30;1.00;;;;;;4997079;28;20336;-63
2021/04/02 01:28:26;;;;;;;8.68;5.28;;;6.20;1.00;;;;;;4998411;28;20254;-63
2021/04/02 01:30:54;;;;;;;8.60;6.13;;;6.10;10.00;;;;;;4996796;28;20185;-63
2021/04/02 01:33:20;;;;;;;9.30;6.93;;;6.20;46.20;;;;;;4996554;28;20179;-62
2021/04/02 01:35:48;;;;;;;10.53;6.37;;;6.10;99.90;;;;;;4996554;28;20529;-62
2021/04/02 01:38:22;;;;;;;9.48;6.60;;;6.20;99.90;;;;;;4996796;28;20197;-62
2021/04/02 01:40:51;;;;;;;11.95;6.90;;;6.30;99.20;;;;;;4995723;28;20312;-62
2021/04/02 01:43:20;;;;;;;8.50;6.00;;;6.20;91.90;;;;;;4996491;28;20197;-62
2021/04/02 01:45:47;;;;;;;10.68;7.53;;;6.20;89.90;;;;;;4996514;28;20182;-62
2021/04/02 01:48:14;;;;;;;11.63;6.68;;;6.20;77.50;;;;;;4996393;28;20228;-62
2021/04/02 01:50:43;;;;;;;9.73;7.35;;;6.30;75.60;;;;;;4996419;28;20179;-62
2021/04/02 01:53:09;;;;;;;8.10;5.80;;;6.30;44.60;;;;;;4996099;28;20188;-62
2021/04/02 01:55:37;;;;;;;10.73;6.32;;;6.20;28.60;;;;;;4996374;28;20270;-62
2021/04/02 01:58:04;;;;;;;9.40;6.55;;;6.20;43.40;;;;;;4996223;28;20178;-62
2021/04/02 02:00:34;;;;;;;9.82;7.38;;;6.30;43.40;;;;;;4996214;28;20182;-62
2021/04/02 02:03:00;;;;;;;10.80;7.25;;;6.40;12.30;;;;;;4996148;28;20182;-63
2021/04/02 02:05:28;;;;;;;9.80;6.80;;;6.50;1.00;;;;;;4996325;28;20179;-63
2021/04/02 02:07:55;;;;;;;12.40;8.27;;;6.40;1.00;;;;;;4995959;28;20689;-62
2021/04/02 02:10:21;;;;;;;10.00;8.30;;;6.40;1.00;;;;;;4997133;28;20185;-68
2021/04/02 02:12:49;;;;;;;12.30;8.55;;;6.20;1.00;;;;;;4996983;28;20618;-64
2021/04/02 02:15:17;;;;;;;10.57;8.27;;;6.20;1.00;;;;;;4995248;28;20328;-63
2021/04/02 02:17:49;;;;;;;12.10;9.25;;;6.30;1.00;;;;;;4995677;28;20216;-65
2021/04/02 02:20:16;;;;;;;12.80;8.57;;;6.40;1.00;;;;;;4995431;28;20192;-65
2021/04/02 02:22:42;;;;;;;13.45;9.05;;;6.30;1.00;;;;;;4995411;28;20181;-65
2021/04/02 02:25:09;;;;;;;11.50;8.45;;;6.30;1.00;;;;;;4995092;28;20183;-65
2021/04/02 02:27:36;;;;;;;16.02;9.90;;;6.30;1.00;;;;;;4994588;28;20302;-65
2021/04/02 02:30:07;;;;;;;17.17;10.63;;;6.10;1.00;;;;;;5010832;28;20244;-65
2021/04/02 02:32:33;;;;;;;19.55;11.20;;;6.00;1.00;;;;;;4995640;28;20490;-65
2021/04/02 02:34:59;;;;;;;19.42;12.80;;;5.70;20.50;;;;;;4995252;28;20681;-65
2021/04/02 02:37:24;;;;;;;20.77;12.57;;;5.60;93.50;;;;;;5010586;28;20194;-65
2021/04/02 02:39:50;;;;;;;19.93;13.07;;;5.50;99.90;;;;;;4995314;28;20187;-65
2021/04/02 02:42:17;;;;;;;19.40;12.73;;;5.50;99.90;;;;;;4995364;28;20198;-65
2021/04/02 02:44:44;;;;;;;24.45;14.32;;;5.40;99.90;;;;;;4995087;28;20190;-65
2021/04/02 02:47:10;;;;;;;19.95;13.38;;;5.30;99.90;;;;;;4995201;28;20271;-62
2021/04/02 02:49:36;;;;;;;27.50;15.67;;;5.20;99.90;;;;;;4995357;28;20174;-62
2021/04/02 02:52:03;;;;;;;31.15;15.13;;;5.30;99.90;;;;;;4995435;28;20320;-62
2021/04/02 02:54:31;;;;;;;27.27;14.27;;;5.20;99.90;;;;;;4994922;28;20177;-64
2021/04/02 02:56:58;;;;;;;32.30;15.90;;;5.20;99.90;;;;;;4995093;28;20189;-64
2021/04/02 02:59:26;;;;;;;24.88;13.77;;;5.10;99.90;;;;;;4995036;28;20645;-62
2021/04/02 03:01:53;;;;;;;29.45;14.90;;;5.20;99.90;;;;;;4994763;28;20196;-64
2021/04/02 03:04:21;;;;;;;35.88;15.65;;;5.40;99.90;;;;;;4994600;28;20193;-64
2021/04/02 03:06:49;;;;;;;34.03;11.85;;;5.40;99.90;;;;;;4994961;28;20387;-65
2021/04/02 03:09:17;;;;;;;30.23;12.90;;;5.30;99.90;;;;;;4994906;28;20171;-65
2021/04/02 03:11:45;;;;;;;25.45;12.18;;;5.30;99.90;;;;;;4994858;28;20192;-63
2021/04/02 03:14:22;;;;;;;21.90;11.40;;;5.30;99.90;;;;;;4994690;28;20181;-63
2021/04/02 03:16:59;;;;;;;24.83;10.95;;;5.40;99.90;;;;;;4994834;28;20507;-63
2021/04/02 03:19:25;;;;;;;20.40;9.65;;;5.20;99.90;;;;;;4993758;28;20185;-61
2021/04/02 03:21:55;;;;;;;15.95;10.25;;;5.10;99.90;;;;;;4994834;28;20693;-61
2021/04/02 03:24:23;;;;;;;18.55;11.15;;;5.10;99.90;;;;;;4994468;28;20177;-63
2021/04/02 03:26:51;;;;;;;23.52;11.65;;;5.10;99.90;;;;;;4994568;28;20262;-60
2021/04/02 03:29:19;;;;;;;23.85;9.93;;;5.30;99.90;;;;;;4995136;28;20522;-60
2021/04/02 03:31:46;;;;;;;18.80;11.27;;;5.40;99.90;;;;;;4994982;28;20170;-63
2021/04/02 03:34:16;;;;;;;17.95;11.43;;;5.50;99.90;;;;;;5010024;28;20193;-63
2021/04/02 03:36:45;;;;;;;18.95;10.35;;;5.50;99.90;;;;;;4994883;28;20185;-63
2021/04/02 03:39:16;;;;;;;22.13;11.52;;;5.60;99.90;;;;;;4994342;28;20197;-63
2021/04/02 03:41:43;;;;;;;31.38;11.02;;;5.60;99.90;;;;;;4994177;28;20181;-63
2021/04/02 03:44:13;;;;;;;17.20;10.10;;;5.60;99.90;;;;;;4993873;28;20186;-63
2021/04/02 03:46:41;;;;;;;24.90;11.10;;;5.50;99.90;;;;;;4994191;28;20550;-63
2021/04/02 03:49:13;;;;;;;16.23;9.57;;;5.40;99.90;;;;;;4994067;28;20177;-63
2021/04/02 03:51:40;;;;;;;19.05;10.15;;;5.00;99.90;;;;;;4994124;28;20169;-61
2021/04/02 03:54:08;;;;;;;20.63;11.30;;;5.10;99.90;;;;;;4993940;28;20200;-61
2021/04/02 03:56:36;;;;;;;17.40;11.55;;;5.10;99.90;;;;;;4994033;28;20199;-62
2021/04/02 03:59:04;;;;;;;21.17;11.63;;;5.20;99.90;;;;;;4994098;28;20176;-62
2021/04/02 04:01:37;;;;;;;14.60;10.10;;;5.40;99.90;;;;;;4994120;28;20206;-62
2021/04/02 04:04:04;;;;;;;32.33;11.77;;;5.30;99.90;;;;;;4993817;28;20178;-62
2021/04/02 04:06:32;;;;;;;18.55;11.73;;;5.10;99.90;;;;;;5008880;28;20224;-61
2021/04/02 04:09:01;;;;;;;16.75;11.00;;;5.00;99.90;;;;;;4993846;28;20276;-61
2021/04/02 04:11:29;;;;;;;32.05;12.75;;;5.00;99.90;;;;;;4992721;28;20199;-61
2021/04/02 04:13:56;;;;;;;27.90;13.10;;;4.70;99.90;;;;;;4993712;28;20566;-61
2021/04/02 04:16:24;;;;;;;23.38;13.90;;;4.70;99.90;;;;;;4997188;28;20182;-61
2021/04/02 04:18:57;;;;;;;24.92;12.85;;;4.70;99.90;;;;;;4997236;28;20176;-61
2021/04/02 04:21:26;;;;;;;20.85;13.35;;;4.60;99.90;;;;;;4997079;28;20324;-61
2021/04/02 04:23:52;;;;;;;31.00;14.05;;;4.60;99.90;;;;;;4996867;28;20601;-61
2021/04/02 04:26:21;;;;;;;22.70;13.43;;;4.70;99.90;;;;;;4997115;28;20222;-61
2021/04/02 04:28:50;;;;;;;21.75;13.80;;;4.60;99.90;;;;;;4997069;28;20763;-61
2021/04/02 04:31:18;;;;;;;42.30;15.10;;;4.70;99.90;;;;;;4997161;28;20499;-62
2021/04/02 04:33:46;;;;;;;35.35;17.70;;;4.60;99.90;;;;;;4996931;28;20182;-62
2021/04/02 04:36:13;;;;;;;32.65;17.58;;;4.60;99.90;;;;;;5012322;28;20564;-62
2021/04/02 04:38:41;;;;;;;35.60;17.63;;;4.60;99.90;;;;;;4968930;28;832852;-62
2021/04/02 04:41:08;;;;;;;35.25;17.50;;;4.80;99.90;;;;;;4998168;28;20181;-62
2021/04/02 04:43:35;;;;;;;25.25;16.05;;;4.70;99.90;;;;;;4998013;28;20538;-63
2021/04/02 04:46:01;;;;;;;32.88;20.17;;;4.70;99.90;;;;;;4998000;28;20174;-63
2021/04/02 04:48:28;;;;;;;25.08;14.63;;;4.70;99.90;;;;;;4998256;28;20178;-64
2021/04/02 04:50:54;;;;;;;23.67;16.15;;;4.50;99.90;;;;;;4998023;28;20180;-64
2021/04/02 04:53:26;;;;;;;29.33;18.90;;;4.30;99.90;;;;;;4997775;28;20669;-64
2021/04/02 04:55:54;;;;;;;28.90;18.15;;;4.00;99.90;;;;;;4997859;28;20516;-64
2021/04/02 04:58:21;;;;;;;26.88;16.05;;;4.00;99.90;;;;;;5013074;28;20186;-64
2021/04/02 05:00:48;;;;;;;29.90;18.77;;;4.10;99.90;;;;;;4997807;28;20638;-64
2021/04/02 05:03:21;;;;;;;27.60;19.67;;;4.10;99.90;;;;;;4997528;28;20324;-64
2021/04/02 05:05:51;;;;;;;30.17;19.75;;;4.00;99.90;;;;;;4997688;28;20177;-64
2021/04/02 05:08:21;;;;;;;21.77;15.27;;;3.90;99.90;;;;;;4997815;28;20712;-64
2021/04/02 05:10:51;;;;;;;24.08;16.70;;;3.90;99.90;;;;;;4997975;28;20176;-64
2021/04/02 05:13:18;;;;;;;24.42;16.88;;;3.90;99.90;;;;;;5012704;28;20217;-64
2021/04/02 05:15:45;;;;;;;24.42;17.33;;;3.80;99.90;;;;;;4997671;28;20186;-64
2021/04/02 05:18:12;;;;;;;21.92;14.65;;;3.90;99.90;;;;;;4997616;28;20196;-64
2021/04/02 05:20:43;;;;;;;20.58;16.70;;;3.90;99.90;;;;;;4997679;28;20243;-63
2021/04/02 05:23:10;;;;;;;17.08;11.65;;;3.90;99.90;;;;;;4997304;28;20181;-63
2021/04/02 05:25:36;;;;;;;24.00;11.40;;;3.80;99.90;;;;;;4997041;28;20543;-63
2021/04/02 05:28:04;;;;;;;28.53;14.97;;;3.80;99.90;;;;;;4997385;28;20243;-63
2021/04/02 05:30:30;;;;;;;24.75;16.88;;;3.80;99.90;;;;;;4997378;28;20623;-64
2021/04/02 05:32:56;;;;;;;17.07;12.27;;;4.00;99.90;;;;;;4997253;28;20192;-64
2021/04/02 05:35:22;;;;;;;19.42;12.07;;;4.00;99.90;;;;;;4997031;28;20244;-64
2021/04/02 05:37:48;;;;;;;17.50;11.70;;;4.10;99.90;;;;;;4997225;28;20580;-64
2021/04/02 05:40:14;;;;;;;15.18;10.07;;;4.30;99.90;;;;;;4997265;28;20443;-64
2021/04/02 05:42:47;;;;;;;13.05;8.88;;;4.20;99.90;;;;;;4997112;28;20189;-64
2021/04/02 05:45:14;;;;;;;16.27;9.95;;;4.00;99.90;;;;;;4996903;28;20192;-63
2021/04/02 05:47:41;;;;;;;27.08;11.82;;;4.00;99.90;;;;;;4997070;28;20306;-63
2021/04/02 05:50:09;;;;;;;18.50;10.38;;;4.10;99.90;;;;;;4997005;28;20637;-63
2021/04/02 05:52:37;;;;;;;13.07;8.75;;;4.20;99.90;;;;;;4997043;28;20224;-63
2021/04/02 05:55:05;;;;;;;16.27;10.95;;;4.10;99.90;;;;;;4996686;28;20189;-63
2021/04/02 05:57:31;;;;;;;15.27;10.73;;;4.20;99.90;;;;;;4996771;28;20182;-64
2021/04/02 05:59:58;;;;;;;16.63;9.20;;;4.20;99.90;;;;;;4996813;28;20261;-64
2021/04/02 06:02:24;;;;;;;15.57;8.73;;;4.40;99.90;;;;;;4996730;28;20443;-64
2021/04/02 06:04:49;;;;;;;15.57;9.18;;;4.30;99.90;;;;;;4996452;28;20244;-63
2021/04/02 06:07:15;;;;;;;15.20;10.50;;;4.50;99.90;;;;;;4996542;28;20213;-64
2021/04/02 06:09:41;;;;;;;9.97;7.13;;;4.60;99.90;;;;;;5011851;28;20186;-64
2021/04/02 06:12:07;;;;;;;13.87;8.80;;;4.50;99.90;;;;;;4996640;28;20248;-63
2021/04/02 06:14:33;;;;;;;15.40;8.75;;;4.40;99.90;;;;;;4995742;28;20635;-63
2021/04/02 06:16:59;;;;;;;10.60;7.63;;;4.50;99.90;;;;;;4996101;28;20190;-64
2021/04/02 06:19:24;;;;;;;21.55;10.00;;;4.40;99.90;;;;;;4994841;28;20193;-64
2021/04/02 06:21:56;;;;;;;14.73;7.70;;;4.40;99.90;;;;;;4995998;28;20170;-63
2021/04/02 06:24:35;;;;;;;12.10;7.57;;;4.30;99.90;;;;;;4995745;28;20193;-64
2021/04/02 06:27:02;;;;;;;13.02;7.00;;;4.40;99.90;;;;;;4995621;28;20201;-64
2021/04/02 06:29:29;;;;;;;11.18;6.55;;;4.50;99.90;;;;;;4995682;28;20176;-64
2021/04/02 06:31:55;;;;;;;13.90;6.93;;;4.80;99.90;;;;;;4995592;28;20496;-64
2021/04/02 06:34:22;;;;;;;12.10;6.75;;;5.30;99.90;;;;;;4995611;28;20182;-64
2021/04/02 06:36:50;;;;;;;11.20;7.18;;;5.50;99.90;;;;;;4994958;28;20325;-64
2021/04/02 06:39:16;;;;;;;10.38;6.18;;;5.50;33.60;;;;;;4995168;28;20251;-64
2021/04/02 06:41:42;;;;;;;13.90;6.75;;;5.40;31.70;;;;;;4995381;28;20182;-64
2021/04/02 06:44:09;;;;;;;8.97;5.83;;;5.40;27.70;;;;;;4995136;28;20526;-64
2021/04/02 06:46:40;;;;;;;14.38;7.03;;;5.70;43.80;;;;;;4994265;28;20228;-64
2021/04/02 06:49:08;;;;;;;13.57;6.43;;;5.70;4.30;;;;;;4995456;28;20182;-64
2021/04/02 06:51:37;;;;;;;10.43;7.35;;;5.70;1.00;;;;;;5010526;28;20190;-64
2021/04/02 06:54:04;;;;;;;19.67;9.20;;;5.70;1.00;;;;;;4994738;28;20186;-64
2021/04/02 06:56:31;;;;;;;12.00;5.90;;;5.70;1.00;;;;;;4995014;28;20522;-64
2021/04/02 06:58:58;;;;;;;9.07;5.93;;;5.90;1.00;;;;;;4995073;28;20642;-64
2021/04/02 07:01:26;;;;;;;9.00;5.88;;;6.20;1.00;;;;;;4994995;28;20200;-64
2021/04/02 07:03:52;;;;;;;9.27;5.40;;;6.00;1.00;;;;;;4993603;28;20631;-64
2021/04/02 07:06:19;;;;;;;9.40;5.23;;;6.00;1.00;;;;;;4994664;28;20243;-64
2021/04/02 07:08:46;;;;;;;8.45;5.75;;;6.20;1.00;;;;;;4994774;28;20423;-64
2021/04/02 07:11:12;;;;;;;7.97;4.75;;;6.40;1.00;;;;;;4994748;28;20194;-64
2021/04/02 07:13:51;;;;;;;13.57;5.97;;;6.20;1.00;;;;;;4993451;28;20185;-64
2021/04/02 07:16:18;;;;;;;7.07;4.55;;;6.10;1.00;;;;;;4995036;28;20438;-64
2021/04/02 07:18:44;;;;;;;8.43;4.28;;;6.00;1.00;;;;;;4994714;28;20620;-64
2021/04/02 07:21:11;;;;;;;6.43;3.50;;;5.90;1.00;;;;;;4995077;28;20186;-64
2021/04/02 07:23:39;;;;;;;5.00;2.50;;;5.80;1.00;;;;;;4994340;28;20232;-64
2021/04/02 07:26:05;;;;;;;4.88;2.80;;;5.80;1.00;;;;;;4994574;28;20224;-64
2021/04/02 07:28:31;;;;;;;10.93;3.80;;;5.90;1.00;;;;;;4994501;28;20185;-64
2021/04/02 07:30:58;;;;;;;6.63;2.80;;;6.00;1.00;;;;;;4994427;28;20588;-64
2021/04/02 07:33:25;;;;;;;4.75;3.33;;;6.20;1.00;;;;;;4994221;28;20565;-64
2021/04/02 07:36:01;;;;;;;6.40;3.10;;;6.10;99.90;;;;;;4994439;28;20547;-62
2021/04/02 07:38:32;;;;;;;7.28;2.40;;;6.30;99.90;;;;;;4994142;28;20201;-61
2021/04/02 07:41:05;;;;;;;5.18;2.78;;;6.20;99.90;;;;;;5012171;28;20232;-63
2021/04/02 07:43:32;;;;;;;9.55;3.40;;;6.20;99.70;;;;;;5025727;28;20242;-62
2021/04/02 07:46:12;;;;;;;7.22;3.88;;;6.60;1.00;;;;;;5024794;28;20193;-62
2021/04/02 07:48:38;;;;;;;5.32;2.65;;;6.70;1.00;;;;;;5034004;28;20251;-62
2021/04/02 07:51:04;;;;;;;7.30;2.97;;;6.90;1.00;;;;;;5034029;28;20170;-60
2021/04/02 07:53:33;;;;;;;4.05;2.67;;;6.50;1.00;;;;;;5033907;28;20417;-60
2021/04/02 07:56:10;;;;;;;8.02;2.63;;;6.70;99.90;;;;;;5019649;28;20198;-60
2021/04/02 07:58:42;;;;;;;7.72;2.30;;;6.60;99.90;;;;;;5022015;28;20181;-61
2021/04/02 08:01:08;;;;;;;7.95;1.98;;;7.10;1.00;;;;;;5032450;28;20178;-60
2021/04/02 08:03:37;;;;;;;8.07;2.38;;;7.20;90.60;;;;;;5031786;28;20628;-64
2021/04/02 08:06:11;;;;;;;6.60;2.03;;;7.30;99.90;;;;;;5032060;28;20205;-68
2021/04/02 08:08:47;;;;;;;8.13;2.40;;;7.30;1.00;;;;;;5032124;28;20185;-63
2021/04/02 08:11:18;;;;;;;4.80;2.05;;;7.40;1.00;;;;;;5031478;28;20590;-63
2021/04/02 08:13:47;;;;;;;5.57;2.42;;;7.30;1.00;;;;;;5030689;28;20200;-68
2021/04/02 08:16:32;;;;;;;11.80;3.13;;;7.30;99.90;;;;;;5031668;28;20186;-66
2021/04/02 08:19:10;;;;;;;8.80;2.35;;;7.30;1.00;;;;;;5033005;28;20626;-66
2021/04/02 08:21:38;;;;;;;7.50;2.25;;;7.50;1.00;;;;;;5033436;28;20185;-63
2021/04/02 08:24:06;;;;;;;5.13;2.60;;;7.70;1.00;;;;;;5033590;28;20177;-61
2021/04/02 08:26:33;;;;;;;11.65;2.80;;;7.60;1.00;;;;;;5033220;28;20221;-66
2021/04/02 08:28:59;;;;;;;5.85;1.83;;;7.60;1.00;;;;;;5033603;28;20507;-67
2021/04/02 08:31:26;;;;;;;8.63;2.05;;;7.40;36.70;;;;;;5033421;28;20177;-61
2021/04/02 08:33:58;;;;;;;8.98;2.00;;;7.20;99.90;;;;;;5025699;28;20194;-61
2021/04/02 08:36:25;;;;;;;6.55;1.83;;;7.30;25.80;;;;;;5011616;28;20639;-63
2021/04/02 08:38:52;;;;;;;7.30;2.20;;;6.80;1.00;;;;;;5021660;28;20209;-65
2021/04/02 08:41:36;;;;;;;3.88;1.40;;;7.00;99.90;;;;;;5021495;28;20324;-65
2021/04/02 08:44:02;;;;;;;7.95;2.78;;;7.10;99.90;;;;;;5013202;28;20192;-64
2021/04/02 08:46:40;;;;;;;7.18;1.80;;;7.40;99.90;;;;;;5021188;28;20210;-65
2021/04/02 08:49:07;;;;;;;5.05;1.42;;;7.80;1.00;;;;;;5047648;28;20186;-63
2021/04/02 08:51:34;;;;;;;3.80;2.05;;;7.80;80.80;;;;;;5033034;28;20177;-66
2021/04/02 08:54:00;;;;;;;8.77;2.70;;;7.90;99.90;;;;;;5017892;28;20183;-67
2021/04/02 08:56:29;;;;;;;4.63;1.27;;;8.10;3.10;;;;;;5032175;28;20633;-68
2021/04/02 08:58:56;;;;;;;7.65;2.50;;;7.40;1.00;;;;;;5015203;28;20288;-64
2021/04/02 09:01:22;;;;;;;5.03;1.85;;;7.30;99.90;;;;;;5025555;28;20182;-65
2021/04/02 09:03:48;;;;;;;4.47;2.25;;;7.20;99.90;;;;;;5028277;28;20182;-65
2021/04/02 09:06:14;;;;;;;4.50;1.35;;;7.10;18.20;;;;;;5025200;28;20189;-65
2021/04/02 09:08:40;;;;;;;11.13;2.95;;;7.10;99.90;;;;;;5024863;28;20178;-66
2021/04/02 09:11:11;;;;;;;9.85;3.22;;;7.10;1.00;;;;;;5020234;28;20182;-66
2021/04/02 09:13:37;;;;;;;8.98;2.97;;;7.20;99.90;;;;;;5016821;28;20631;-65
2021/04/02 09:16:13;;;;;;;9.20;2.60;;;7.50;99.90;;;;;;5016662;28;20273;-65
2021/04/02 09:18:50;;;;;;;5.88;1.90;;;7.40;1.00;;;;;;5024577;28;20258;-65
2021/04/02 09:21:16;;;;;;;6.68;2.35;;;7.20;99.90;;;;;;4997166;28;20529;-65
2021/04/02 09:23:42;;;;;;;2.30;1.75;;;7.10;1.00;;;;;;4996547;28;20186;-64
2021/04/02 09:26:09;;;;;;;9.07;2.60;;;7.00;99.90;;;;;;5008592;28;20693;-65
2021/04/02 09:28:37;;;;;;;5.68;2.17;;;7.00;45.60;;;;;;5015951;28;20190;-66
2021/04/02 09:31:27;;;;;;;4.75;2.00;;;6.80;1.00;;;;;;5013371;28;20195;-66
2021/04/02 09:33:59;;;;;;;7.90;2.65;;;6.80;99.90;;;;;;5032986;28;20189;-68
2021/04/02 09:36:28;;;;;;;6.82;2.63;;;7.00;1.00;;;;;;5020198;28;20192;-65
2021/04/02 09:39:09;;;;;;;6.97;2.45;;;7.00;1.00;;;;;;5015108;28;20206;-62
2021/04/02 09:41:36;;;;;;;6.43;2.33;;;7.00;99.90;;;;;;5020939;28;20199;-65
2021/04/02 09:44:08;;;;;;;7.85;2.60;;;7.20;99.90;;;;;;5024356;28;20243;-65
2021/04/02 09:46:36;;;;;;;8.07;2.00;;;7.30;1.00;;;;;;5016940;28;20205;-66
2021/04/02 09:49:08;;;;;;;7.57;1.92;;;7.40;99.90;;;;;;5015522;28;20240;-65
2021/04/02 09:51:36;;;;;;;7.82;3.30;;;7.60;1.00;;;;;;5020690;28;20208;-65
2021/04/02 09:54:02;;;;;;;4.38;2.25;;;7.60;1.00;;;;;;5027579;28;20601;-65
2021/04/02 09:56:28;;;;;;;5.97;2.13;;;7.70;1.00;;;;;;5036236;28;20224;-63
2021/04/02 09:58:54;;;;;;;5.97;2.97;;;7.60;1.00;;;;;;5023847;28;20185;-63
2021/04/02 10:01:20;;;;;;;6.17;3.27;;;7.50;99.90;;;;;;5016260;28;20756;-62
2021/04/02 10:03:46;;;;;;;6.20;2.60;;;7.60;99.90;;;;;;5016051;28;20183;-61
2021/04/02 10:06:11;;;;;;;9.55;2.88;;;7.60;1.00;;;;;;5016029;28;20540;-62
2021/04/02 10:08:37;;;;;;;7.03;2.10;;;7.70;1.00;;;;;;5015501;28;20264;-61
2021/04/02 10:11:02;;;;;;;5.83;2.00;;;7.40;1.00;;;;;;5015909;28;20186;-61
2021/04/02 10:13:28;;;;;;;8.13;3.10;;;7.40;1.00;;;;;;5014698;28;20181;-62
2021/04/02 10:15:54;;;;;;;9.93;4.03;;;7.30;1.00;;;;;;5015825;28;20235;-61
2021/04/02 10:18:20;;;;;;;7.63;2.30;;;7.50;66.30;;;;;;5011891;28;20192;-64
2021/04/02 10:20:46;;;;;;;5.30;2.92;;;7.50;1.00;;;;;;5018535;28;20260;-65
2021/04/02 10:23:11;;;;;;;9.47;2.30;;;7.30;1.00;;;;;;5028927;28;20611;-64
2021/04/02 10:25:37;;;;;;;5.90;2.77;;;7.50;1.00;;;;;;5015600;28;20232;-64
2021/04/02 10:28:03;;;;;;;14.47;2.97;;;7.60;1.00;;;;;;5013744;28;20241;-65
2021/04/02 10:30:29;;;;;;;5.83;3.10;;;7.70;99.90;;;;;;5012225;28;20190;-67
2021/04/02 10:32:54;;;;;;;8.57;3.40;;;7.60;1.00;;;;;;5015189;28;20791;-64
2021/04/02 10:35:20;;;;;;;5.00;2.80;;;7.50;1.00;;;;;;5025734;28;20189;-65
2021/04/02 10:37:46;;;;;;;7.10;2.20;;;7.60;1.00;;;;;;5025730;28;20225;-65
2021/04/02 10:40:13;;;;;;;4.67;2.00;;;7.40;1.00;;;;;;5014965;28;20448;-63
2021/04/02 10:42:38;;;;;;;10.40;3.55;;;7.10;1.00;;;;;;5025773;28;20520;-63
2021/04/02 10:45:05;;;;;;;11.87;1.80;;;7.20;99.90;;;;;;5021627;28;20192;-66
2021/04/02 10:47:31;;;;;;;8.85;2.70;;;7.20;1.00;;;;;;5026216;28;20705;-64
2021/04/02 10:49:56;;;;;;;7.33;2.83;;;7.50;1.00;;;;;;5034496;28;20312;-63
2021/04/02 10:52:22;;;;;;;5.83;3.10;;;7.70;99.90;;;;;;5023902;28;20667;-63
2021/04/02 10:54:48;;;;;;;4.77;2.70;;;7.70;1.00;;;;;;5021039;28;20192;-66
2021/04/02 10:57:15;;;;;;;6.50;2.30;;;7.80;1.00;;;;;;5029760;28;20572;-66
2021/04/02 10:59:41;;;;;;;7.65;2.03;;;7.60;94.20;;;;;;5025841;28;20614;-64
2021/04/02 11:02:07;;;;;;;12.23;3.20;;;7.40;99.90;;;;;;5034434;28;20178;-65
2021/04/02 11:04:32;;;;;;;8.93;2.43;;;7.50;1.00;;;;;;5033884;28;20181;-63
2021/04/02 11:06:58;;;;;;;4.97;2.93;;;7.70;5.10;;;;;;5030709;28;20199;-63
2021/04/02 11:09:23;;;;;;;4.80;2.53;;;7.80;1.00;;;;;;5015614;28;20616;-63
2021/04/02 11:11:49;;;;;;;6.03;2.40;;;7.70;99.90;;;;;;5014993;28;20221;-65
2021/04/02 11:14:15;;;;;;;6.47;2.10;;;7.80;1.00;;;;;;5013548;28;20190;-65
2021/04/02 11:16:40;;;;;;;18.37;2.70;;;7.70;1.00;;;;;;5014008;28;20193;-67
2021/04/02 11:19:06;;;;;;;5.17;2.30;;;7.80;99.90;;;;;;5013816;28;20268;-64
2021/04/02 11:21:32;;;;;;;11.27;2.43;;;7.80;21.60;;;;;;5013812;28;20567;-64
2021/04/02 11:23:57;;;;;;;7.23;3.37;;;8.00;1.00;;;;;;5013398;28;20547;-64
2021/04/02 11:26:24;;;;;;;3.00;1.87;;;8.20;1.00;;;;;;5013816;28;20428;-64
2021/04/02 11:28:50;;;;;;;6.45;3.00;;;8.50;99.90;;;;;;5013966;28;20203;-65
2021/04/02 11:31:18;;;;;;;9.43;2.88;;;8.50;89.30;;;;;;5014026;28;20208;-65
2021/04/02 11:33:43;;;;;;;7.38;2.45;;;8.30;93.90;;;;;;5013797;28;20178;-66
2021/04/02 11:36:09;;;;;;;4.30;2.53;;;8.10;1.00;;;;;;5012882;28;20174;-64
2021/04/02 11:38:36;;;;;;;5.17;2.00;;;8.00;1.00;;;;;;5013944;28;20649;-64
2021/04/02 11:41:02;;;;;;;8.95;2.70;;;8.10;1.00;;;;;;5013721;28;20200;-64
2021/04/02 11:43:28;;;;;;;7.30;2.60;;;8.20;99.90;;;;;;5012341;28;20197;-63
2021/04/02 11:45:54;;;;;;;8.33;2.50;;;8.20;99.90;;;;;;5013682;28;20183;-67
2021/04/02 11:48:19;;;;;;;12.53;2.90;;;8.30;67.30;;;;;;5013698;28;20202;-65
2021/04/02 11:50:45;;;;;;;6.33;2.40;;;8.60;99.90;;;;;;5013592;28;20186;-62
2021/04/02 11:53:10;;;;;;;7.10;1.77;;;8.40;1.00;;;;;;5013755;28;20661;-63
2021/04/02 11:55:36;;;;;;;5.33;1.90;;;8.30;1.00;;;;;;5029324;28;20210;-63
2021/04/02 11:58:02;;;;;;;5.90;2.47;;;8.40;1.00;;;;;;5013459;28;20174;-63
2021/04/02 12:00:28;;;;;;;2.75;2.22;;;8.20;1.00;;;;;;5013677;28;20193;-64
2021/04/02 12:02:55;;;;;;;7.13;1.83;;;8.10;1.00;;;;;;5013698;28;20192;-66
2021/04/02 12:05:24;;;;;;;7.38;1.70;;;8.10;1.00;;;;;;5013206;28;20186;-65
2021/04/02 12:07:50;;;;;;;4.20;2.03;;;8.10;1.00;;;;;;5013280;28;20209;-65
2021/04/02 12:10:15;;;;;;;6.20;2.15;;;8.10;1.00;;;;;;5013387;28;20193;-67
2021/04/02 12:12:41;;;;;;;5.00;2.00;;;8.40;1.00;;;;;;5013497;28;20521;-67
2021/04/02 12:15:08;;;;;;;2.80;1.80;;;8.40;1.00;;;;;;5013262;28;20185;-66
2021/04/02 12:17:33;;;;;;;8.27;2.10;;;8.20;1.00;;;;;;5013440;28;20198;-66
2021/04/02 12:19:59;;;;;;;4.97;1.80;;;8.30;1.00;;;;;;5013439;28;20178;-66
2021/04/02 12:22:24;;;;;;;7.27;2.47;;;8.40;1.00;;;;;;5013585;28;20646;-64
2021/04/02 12:24:50;;;;;;;5.40;2.60;;;8.10;1.00;;;;;;5012219;28;20179;-65
2021/04/02 12:27:16;;;;;;;6.80;2.10;;;8.20;99.90;;;;;;5013232;28;20207;-65
2021/04/02 12:29:41;;;;;;;4.70;1.80;;;8.60;1.00;;;;;;5012359;28;20606;-64
2021/04/02 12:32:07;;;;;;;7.40;2.10;;;8.30;1.00;;;;;;5013862;28;20194;-65
2021/04/02 12:34:33;;;;;;;6.13;2.10;;;8.50;1.00;;;;;;5013355;28;20189;-66
2021/04/02 12:36:59;;;;;;;5.88;1.85;;;8.40;1.00;;;;;;5016758;28;20898;-64
2021/04/02 12:39:24;;;;;;;3.60;1.43;;;8.00;99.90;;;;;;5017304;28;20205;-64
2021/04/02 12:41:50;;;;;;;4.67;2.20;;;7.60;1.00;;;;;;5017133;28;20509;-63
2021/04/02 12:44:15;;;;;;;10.40;2.30;;;7.50;99.90;;;;;;5016996;28;20577;-65
2021/04/02 12:46:41;;;;;;;8.23;1.70;;;7.60;1.00;;;;;;5017139;28;20218;-66
2021/04/02 12:49:07;;;;;;;4.40;2.23;;;7.60;1.00;;;;;;5017083;28;20186;-63
2021/04/02 12:51:32;;;;;;;3.20;1.80;;;7.80;1.00;;;;;;5012597;28;20538;-64
2021/04/02 12:53:58;;;;;;;5.27;2.07;;;7.80;1.00;;;;;;5011234;28;20619;-63
2021/04/02 12:56:23;;;;;;;2.27;1.47;;;7.70;1.00;;;;;;5013297;28;20198;-64
2021/04/02 12:58:49;;;;;;;5.53;2.57;;;7.80;1.00;;;;;;5017429;28;20198;-64